Time;durP1;ratioP1;P1;durP2;ratioP2;P2;SDS_P1;SDS_P2;PMS_P1;PMS_P2;Temp;Humidity;BMP_temperature;BMP_pressure;BME280_temperature;BME280_humidity;BME280_pressure;Samples;Min_cycle;Max_cycle;Signal;HPM_P1;HPM_P2
2022/12/11 00:01:58;;;;;;;28.60;13.80;;;;;;;15.33;76.68;99442.08;1699652;84;21239;-77
2022/12/11 00:05:05;;;;;;;35.28;15.60;;;;;;;15.17;77.09;99447.66;1713607;83;21208;-77
2022/12/11 00:08:11;;;;;;;35.40;14.45;;;;;;;15.27;77.26;99449.35;1691485;84;21196;-76
2022/12/11 00:11:18;;;;;;;31.15;14.70;;;;;;;15.26;77.95;99455.09;1711121;83;21215;-76
2022/12/11 00:14:23;;;;;;;31.75;15.10;;;;;;;14.69;79.61;99444.17;1688555;84;21213;-76
2022/12/11 00:17:30;;;;;;;34.73;13.90;;;;;;;14.98;79.09;99450.91;1705388;83;21196;-76
2022/12/11 00:20:36;;;;;;;26.10;14.43;;;;;;;15.11;78.37;99443.61;1691062;84;21250;-77
2022/12/11 00:23:42;;;;;;;27.65;15.05;;;;;;;15.20;77.56;99442.25;1674670;84;21199;-77
2022/12/11 00:26:49;;;;;;;28.80;14.03;;;;;;;15.11;77.67;99440.31;1688125;84;21214;-76
2022/12/11 00:29:56;;;;;;;27.22;13.83;;;;;;;14.96;77.91;99440.67;1713653;83;21325;-76
2022/12/11 00:33:02;;;;;;;22.17;13.68;;;;;;;15.11;77.88;99433.97;1687212;84;21374;-77
2022/12/11 00:36:08;;;;;;;25.48;12.35;;;;;;;15.00;77.98;99434.99;1713307;83;21186;-78
2022/12/11 00:39:14;;;;;;;24.10;13.28;;;;;;;15.18;77.65;99440.23;1692924;81;21220;-76
2022/12/11 00:42:20;;;;;;;25.55;13.62;;;;;;;15.14;77.39;99434.87;1703665;83;21211;-76
2022/12/11 00:45:14;;;;;;;25.57;12.57;;;;;;;14.88;77.92;99431.84;1723139;82;21223;-77
2022/12/11 00:48:20;;;;;;;25.60;14.03;;;;;;;15.25;77.36;99429.47;1726932;82;21394;-76
2022/12/11 00:51:26;;;;;;;24.57;14.80;;;;;;;15.36;77.39;99427.86;1724888;82;21191;-77
2022/12/11 00:54:32;;;;;;;30.50;14.58;;;;;;;15.15;77.95;99421.40;1726021;82;21175;-76
2022/12/11 00:57:38;;;;;;;30.60;15.48;;;;;;;15.13;78.10;99420.80;1724052;82;21806;-77
2022/12/11 01:00:44;;;;;;;26.95;15.45;;;;;;;15.18;77.99;99425.09;1734169;82;21302;-77
2022/12/11 01:03:50;;;;;;;36.50;15.55;;;;;;;15.30;77.87;99420.52;1714646;83;21731;-77
2022/12/11 01:06:57;;;;;;;29.25;14.45;;;;;;;15.07;78.59;99417.89;1719898;83;21172;-77
2022/12/11 01:13:27;;;;;;;20.92;13.53;;;;;;;15.15;78.78;99409.00;1712279;83;21287;-77
2022/12/11 01:16:33;;;;;;;28.10;14.05;;;;;;;15.11;79.42;99414.69;1714684;83;21160;-77
2022/12/11 01:19:38;;;;;;;30.50;15.32;;;;;;;15.27;78.47;99412.70;1738324;82;21228;-77
2022/12/11 01:22:45;;;;;;;30.97;15.85;;;;;;;15.01;79.71;99404.20;1707616;83;21200;-77
2022/12/11 01:25:51;;;;;;;30.50;16.65;;;;;;;14.75;81.63;99402.52;1732337;82;21155;-76
2022/12/11 01:28:57;;;;;;;24.55;13.95;;;;;;;15.04;80.53;99394.92;1725597;83;21207;-76
2022/12/11 01:32:04;;;;;;;24.57;14.60;;;;;;;15.38;79.44;99394.02;1728118;82;21215;-76
2022/12/11 01:35:14;;;;;;;26.65;14.70;;;;;;;15.12;79.79;99390.20;1727261;82;21188;-76
2022/12/11 01:38:19;;;;;;;20.45;13.43;;;;;;;14.96;80.88;99392.48;1726489;82;21172;-76
2022/12/11 01:41:24;;;;;;;27.87;13.93;;;;;;;15.36;79.60;99389.28;1719670;81;21199;-77
2022/12/11 01:44:36;;;;;;;33.78;14.73;;;;;;;15.20;79.64;99387.99;1730047;83;21220;-76
2022/12/11 01:47:41;;;;;;;32.08;14.03;;;;;;;15.32;79.77;99383.38;1738063;82;21180;-76
2022/12/11 01:51:03;;;;;;;29.20;14.43;;;;;;;15.41;79.67;99374.82;1711398;83;21204;-77
2022/12/11 01:54:13;;;;;;;26.07;12.93;;;;;;;15.14;80.55;99374.27;1744385;82;21187;-77
2022/12/11 01:57:19;;;;;;;31.97;15.32;;;;;;;15.43;79.83;99379.05;1742646;82;21259;-77
2022/12/11 02:00:25;;;;;;;26.00;13.98;;;;;;;15.67;78.65;99376.45;1741369;82;21268;-77
2022/12/11 02:03:31;;;;;;;31.02;13.88;;;;;;;15.58;78.26;99376.72;1720600;83;21183;-77
2022/12/11 02:06:45;;;;;;;31.12;15.38;;;;;;;15.67;78.42;99379.20;1740113;82;21183;-77
2022/12/11 02:09:52;;;;;;;23.83;13.25;;;;;;;15.45;79.11;99380.18;1742468;82;21180;-76
2022/12/11 02:13:16;;;;;;;24.63;13.08;;;;;;;15.38;79.22;99387.12;1721484;83;21204;-77
2022/12/11 02:16:30;;;;;;;27.85;14.45;;;;;;;15.26;80.15;99384.85;1720167;83;21165;-78
2022/12/11 02:20:07;;;;;;;30.52;14.18;;;;;;;15.33;79.92;99376.80;1737139;82;21179;-77
2022/12/11 02:23:33;;;;;;;29.15;15.48;;;;;;;15.41;79.68;99374.82;1709103;82;21759;-78
2022/12/11 02:26:58;;;;;;;32.48;14.07;;;;;;;15.12;80.60;99382.77;1738407;82;21200;-77
2022/12/11 02:30:12;;;;;;;27.00;13.58;;;;;;;15.50;79.49;99381.70;1750371;82;21176;-76
2022/12/11 02:33:18;;;;;;;35.52;14.25;;;;;;;15.42;79.36;99386.98;1737273;82;21199;-77
2022/12/11 02:36:24;;;;;;;30.90;14.73;;;;;;;15.30;79.86;99391.59;1752091;82;21176;-76
2022/12/11 02:39:29;;;;;;;23.42;13.60;;;;;;;15.53;78.54;99389.52;1707603;83;21188;-78
2022/12/11 02:42:37;;;;;;;29.42;14.18;;;;;;;15.49;78.50;99387.75;1735417;81;21802;-76
2022/12/11 02:45:43;;;;;;;30.77;15.00;;;;;;;15.65;77.23;99386.84;1721769;83;21232;-78
2022/12/11 02:48:49;;;;;;;30.82;14.83;;;;;;;15.69;76.57;99388.91;1718147;83;21164;-77
2022/12/11 02:51:55;;;;;;;29.98;15.70;;;;;;;15.32;77.83;99390.81;1722402;83;22395;-76
2022/12/11 02:55:02;;;;;;;27.15;15.13;;;;;;;15.67;76.51;99388.31;1708293;83;21209;-77
2022/12/11 02:58:16;;;;;;;32.70;16.50;;;;;;;15.38;77.38;99391.27;1717313;83;21192;-77
2022/12/11 03:01:23;;;;;;;32.50;15.78;;;;;;;15.20;77.98;99387.16;1718935;83;21193;-76
2022/12/11 03:04:29;;;;;;;34.08;16.37;;;;;;;15.34;77.64;99391.44;1713564;83;21192;-77
2022/12/11 03:07:40;;;;;;;31.35;16.95;;;;;;;15.10;78.06;99391.78;1716887;83;21180;-77
2022/12/11 03:10:46;;;;;;;28.87;14.95;;;;;;;14.93;78.93;99391.55;1718844;83;21251;-77
2022/12/11 03:13:52;;;;;;;32.30;15.28;;;;;;;15.21;78.00;99391.05;1710157;83;21247;-77
2022/12/11 03:17:25;;;;;;;29.20;15.43;;;;;;;15.45;76.87;99383.77;1735585;82;21168;-77
2022/12/11 03:20:56;;;;;;;28.95;14.68;;;;;;;15.71;76.05;99379.86;1717346;83;21177;-77
2022/12/11 03:24:31;;;;;;;32.93;16.52;;;;;;;15.39;77.05;99381.95;1712882;83;21220;-77
2022/12/11 03:27:58;;;;;;;29.82;15.75;;;;;;;15.31;77.43;99383.63;1707359;83;21239;-77
2022/12/11 03:31:04;;;;;;;31.95;16.27;;;;;;;15.46;76.81;99381.86;1729777;82;21192;-77
2022/12/11 03:34:12;;;;;;;32.03;15.53;;;;;;;15.38;77.60;99383.53;1719329;82;21751;-77
2022/12/11 03:37:12;;;;;;;31.95;16.55;;;;;;;15.01;78.69;99374.73;1741512;82;21287;-77
2022/12/11 03:40:20;;;;;;;36.90;16.97;;;;;;;14.71;80.48;99375.13;1711737;83;21168;-78
2022/12/11 03:43:25;;;;;;;36.98;16.93;;;;;;;14.66;80.69;99384.60;1729870;82;21766;-77
2022/12/11 03:46:36;;;;;;;34.98;16.62;;;;;;;15.13;79.62;99383.61;1737415;82;21180;-77
2022/12/11 03:49:48;;;;;;;29.65;16.42;;;;;;;15.06;79.54;99378.19;1717151;83;21192;-76
2022/12/11 03:52:55;;;;;;;31.25;17.35;;;;;;;15.06;79.29;99369.92;1717193;83;21311;-76
2022/12/11 03:56:02;;;;;;;26.97;15.40;;;;;;;14.98;79.57;99369.68;1715573;83;21790;-76
2022/12/11 03:59:08;;;;;;;40.50;17.85;;;;;;;15.21;79.09;99370.92;1715471;83;21243;-77
2022/12/11 04:02:09;;;;;;;31.30;17.48;;;;;;;15.16;79.06;99370.77;1715873;83;21204;-76
2022/12/11 04:05:15;;;;;;;31.50;16.95;;;;;;;15.26;78.15;99370.54;1715486;83;21223;-76
2022/12/11 04:08:23;;;;;;;32.75;17.23;;;;;;;15.44;77.89;99362.80;1715857;83;21212;-77
2022/12/11 04:11:35;;;;;;;29.57;16.23;;;;;;;15.20;78.75;99372.00;1716681;83;21223;-77
2022/12/11 04:24:56;;;;;;;34.03;19.37;;;;;;;15.09;79.18;99364.78;1716844;83;21232;-76
2022/12/11 04:28:01;;;;;;;31.17;18.12;;;;;;;15.22;78.89;99357.45;1716866;83;21215;-76
2022/12/11 04:31:07;;;;;;;37.95;18.05;;;;;;;14.95;79.66;99362.40;1715513;83;21244;-76
2022/12/11 04:34:13;;;;;;;35.68;18.05;;;;;;;15.38;78.38;99355.44;1716598;83;21212;-76
2022/12/11 04:37:19;;;;;;;37.25;18.48;;;;;;;15.36;78.66;99357.59;1716561;83;21188;-76
2022/12/11 04:40:25;;;;;;;36.40;18.27;;;;;;;15.53;77.46;99354.53;1716594;83;21755;-76
2022/12/11 04:43:30;;;;;;;32.40;17.65;;;;;;;15.47;77.79;99351.30;1715773;82;21354;-76
2022/12/11 04:46:36;;;;;;;47.70;18.90;;;;;;;15.59;77.56;99350.84;1713123;83;21276;-76
2022/12/11 04:49:42;;;;;;;26.75;17.70;;;;;;;15.50;78.02;99359.12;1714667;83;21200;-77
2022/12/11 04:52:42;;;;;;;39.50;17.92;;;;;;;15.50;78.14;99355.52;1715067;83;21766;-75
2022/12/11 04:55:48;;;;;;;33.33;17.90;;;;;;;15.75;76.95;99354.05;1714703;83;21240;-77
2022/12/11 04:58:54;;;;;;;38.95;18.52;;;;;;;15.49;77.80;99349.17;1715037;83;21184;-77
2022/12/11 05:02:01;;;;;;;42.40;18.57;;;;;;;15.84;76.58;99354.03;1714731;83;21259;-77
2022/12/11 05:05:10;;;;;;;40.40;20.00;;;;;;;15.56;77.39;99354.05;1706768;84;21260;-78
2022/12/11 05:08:15;;;;;;;28.85;18.57;;;;;;;15.72;76.91;99349.02;1699768;81;21198;-78
2022/12/11 05:11:21;;;;;;;41.48;19.23;;;;;;;15.54;77.68;99350.70;1692432;84;21230;-77
2022/12/11 05:14:26;;;;;;;37.35;20.12;;;;;;;15.82;76.95;99349.30;1694189;84;21219;-77
2022/12/11 05:17:32;;;;;;;39.90;18.37;;;;;;;15.64;77.28;99358.98;1660951;86;21213;-76
2022/12/11 05:20:38;;;;;;;35.92;19.07;;;;;;;15.42;77.97;99355.29;1665776;86;21240;-77
2022/12/11 05:23:44;;;;;;;46.98;20.45;;;;;;;15.62;77.08;99361.95;1717821;83;21193;-77
2022/12/11 05:26:49;;;;;;;33.88;19.32;;;;;;;15.52;77.68;99359.72;1684427;85;21236;-77
2022/12/11 05:29:56;;;;;;;37.50;18.85;;;;;;;15.72;76.77;99355.91;1716567;83;21250;-78
2022/12/11 05:33:03;;;;;;;35.38;18.45;;;;;;;15.68;77.42;99358.83;1685536;85;21771;-76
2022/12/11 05:36:09;;;;;;;36.28;18.80;;;;;;;15.84;76.26;99367.27;1716758;83;21854;-76
2022/12/11 05:39:15;;;;;;;33.88;20.02;;;;;;;15.93;76.22;99363.66;1710282;84;21370;-76
2022/12/11 05:42:21;;;;;;;36.73;19.85;;;;;;;15.82;76.43;99358.95;1711474;84;21216;-77
2022/12/11 05:45:27;;;;;;;35.83;21.30;;;;;;;15.93;75.77;99365.58;1710293;83;21276;-78
2022/12/11 05:48:33;;;;;;;39.95;21.85;;;;;;;15.52;77.42;99350.06;1711767;84;21545;-77
2022/12/11 05:51:40;;;;;;;42.13;21.70;;;;;;;15.52;77.24;99356.12;1717989;82;21220;-77
2022/12/11 05:54:48;;;;;;;43.28;22.50;;;;;;;15.45;77.59;99356.22;1746198;82;21192;-77
2022/12/11 05:57:55;;;;;;;40.33;21.57;;;;;;;15.56;76.79;99356.80;1745706;82;21240;-76
2022/12/11 06:01:01;;;;;;;39.48;21.55;;;;;;;15.47;77.08;99358.73;1746895;82;21271;-76
2022/12/11 06:04:09;;;;;;;44.00;22.37;;;;;;;15.36;77.48;99360.36;1747145;82;21208;-76
2022/12/11 06:07:15;;;;;;;41.23;21.97;;;;;;;15.58;76.67;99363.48;1746268;82;21491;-77
2022/12/11 06:10:23;;;;;;;47.50;22.58;;;;;;;15.68;76.41;99367.09;1745426;82;21254;-76
2022/12/11 06:13:28;;;;;;;47.05;23.55;;;;;;;15.51;76.61;99374.57;1747463;82;21176;-77
2022/12/11 06:16:33;;;;;;;41.18;21.30;;;;;;;15.46;76.83;99366.16;1747244;82;21279;-77
2022/12/11 06:19:40;;;;;;;34.53;20.55;;;;;;;15.71;75.74;99374.34;1747649;82;21188;-77
2022/12/11 06:22:46;;;;;;;32.75;19.90;;;;;;;15.60;76.18;99365.45;1747648;82;21172;-77
2022/12/11 06:25:51;;;;;;;38.02;20.17;;;;;;;15.87;74.94;99370.12;1747655;82;21185;-77
2022/12/11 06:28:57;;;;;;;39.42;20.20;;;;;;;16.02;74.63;99367.77;1747619;82;21558;-77
2022/12/11 06:32:03;;;;;;;36.15;20.75;;;;;;;15.90;74.79;99371.01;1747145;82;21235;-78
2022/12/11 06:35:08;;;;;;;38.80;21.77;;;;;;;15.79;75.28;99363.54;1746073;82;21181;-78
2022/12/11 06:38:14;;;;;;;35.17;21.05;;;;;;;15.81;75.11;99373.81;1746471;82;21141;-77
2022/12/11 06:41:18;;;;;;;41.77;20.37;;;;;;;15.69;75.49;99361.34;1747614;82;21767;-76
2022/12/11 06:44:24;;;;;;;38.83;21.90;;;;;;;15.63;75.82;99355.89;1747691;82;21185;-77
2022/12/11 06:47:33;;;;;;;35.65;21.70;;;;;;;15.63;76.03;99356.73;1781865;80;21274;-78
2022/12/11 06:50:39;;;;;;;32.23;21.17;;;;;;;15.77;75.47;99351.92;1785033;80;21188;-78
2022/12/11 06:53:44;;;;;;;39.80;22.25;;;;;;;16.08;74.64;99354.95;1784680;80;21216;-76
2022/12/11 06:56:50;;;;;;;40.23;20.35;;;;;;;15.81;75.24;99354.52;1784635;80;21240;-76
2022/12/11 06:59:55;;;;;;;40.30;21.75;;;;;;;15.87;75.13;99358.25;1784811;80;21228;-77
2022/12/11 07:03:01;;;;;;;38.50;21.57;;;;;;;15.80;75.51;99365.22;1783943;80;21759;-76
2022/12/11 07:06:09;;;;;;;37.98;19.92;;;;;;;15.73;75.95;99350.16;1783406;80;21219;-77
2022/12/11 07:09:14;;;;;;;38.90;20.88;;;;;;;15.67;76.42;99344.75;1784775;80;21165;-77
2022/12/11 07:12:19;;;;;;;34.00;20.55;;;;;;;15.26;78.03;99354.01;1784844;80;21176;-77
2022/12/11 07:15:26;;;;;;;41.02;20.12;;;;;;;15.45;77.79;99357.59;1783435;80;21782;-76
2022/12/11 07:18:34;;;;;;;35.70;19.57;;;;;;;15.16;78.71;99357.00;1783682;80;21208;-78
2022/12/11 07:21:40;;;;;;;36.63;20.43;;;;;;;15.70;76.70;99349.77;1783305;80;21175;-78
2022/12/11 07:24:46;;;;;;;42.67;19.80;;;;;;;15.54;77.27;99344.34;1783437;80;21184;-78
2022/12/11 07:27:51;;;;;;;34.95;19.70;;;;;;;15.71;77.07;99334.91;1784267;80;21806;-77
2022/12/11 07:30:57;;;;;;;31.68;19.60;;;;;;;15.97;75.85;99343.36;1784653;80;21239;-77
2022/12/11 07:34:09;;;;;;;34.85;18.80;;;;;;;15.91;75.87;99336.87;1783441;80;21271;-77
2022/12/11 07:37:14;;;;;;;39.53;19.92;;;;;;;15.78;76.67;99338.43;1784753;80;21497;-78
2022/12/11 07:40:22;;;;;;;35.48;18.87;;;;;;;15.71;76.84;99334.37;1784748;80;21200;-77
2022/12/11 07:43:26;;;;;;;41.45;18.95;;;;;;;15.77;76.56;99329.86;1784640;80;21243;-77
2022/12/11 07:46:35;;;;;;;34.60;19.45;;;;;;;15.98;76.32;99334.00;1783217;80;21266;-78
2022/12/11 07:49:41;;;;;;;36.63;18.82;;;;;;;15.92;76.10;99316.48;1782966;80;21227;-77
2022/12/11 07:52:47;;;;;;;37.38;20.92;;;;;;;15.81;76.75;99316.75;1784457;80;21188;-76
2022/12/11 07:55:54;;;;;;;38.92;20.20;;;;;;;15.58;77.70;99314.71;1784533;80;21239;-77
2022/12/11 07:59:00;;;;;;;33.53;19.35;;;;;;;15.73;77.61;99301.91;1783217;80;21193;-77
2022/12/11 08:02:06;;;;;;;45.12;19.95;;;;;;;15.68;77.79;99292.13;1784060;80;21208;-77
2022/12/11 08:05:13;;;;;;;31.90;18.70;;;;;;;15.84;77.43;99295.59;1783386;80;21199;-77
2022/12/11 08:08:19;;;;;;;33.42;17.73;;;;;;;16.06;76.90;99291.75;1783983;80;21263;-78
2022/12/11 08:11:19;;;;;;;32.08;17.27;;;;;;;16.28;76.57;99302.23;1784400;80;21188;-77
2022/12/11 08:14:25;;;;;;;36.28;19.70;;;;;;;16.26;76.22;99294.72;1784276;80;21184;-78
2022/12/11 08:17:29;;;;;;;31.90;16.65;;;;;;;15.98;77.89;99282.44;1782961;80;21272;-77
2022/12/11 08:20:38;;;;;;;29.15;17.57;;;;;;;16.23;77.40;99315.37;1782905;80;21727;-78
2022/12/11 08:23:44;;;;;;;36.45;17.60;;;;;;;16.09;77.89;99318.88;1783018;80;21191;-78
2022/12/11 08:26:50;;;;;;;36.58;17.85;;;;;;;16.18;77.84;99314.37;1784460;80;21184;-78
2022/12/11 08:29:58;;;;;;;40.30;18.98;;;;;;;16.42;76.64;99311.97;1783006;80;21770;-78
2022/12/11 08:33:04;;;;;;;35.92;19.32;;;;;;;16.42;76.08;99311.11;1784621;80;21191;-78
2022/12/11 08:36:12;;;;;;;34.25;17.62;;;;;;;16.25;75.92;99309.60;1784194;80;21184;-77
2022/12/11 08:39:18;;;;;;;39.60;18.95;;;;;;;16.26;75.52;99307.97;1783615;80;21251;-78
2022/12/11 08:42:25;;;;;;;35.73;18.77;;;;;;;16.36;74.62;99311.52;1784466;80;21224;-77
2022/12/11 08:45:32;;;;;;;37.53;17.37;;;;;;;16.18;74.65;99305.55;1784325;80;21216;-76
2022/12/11 08:48:37;;;;;;;33.20;19.07;;;;;;;15.77;75.90;99299.53;1783741;80;21208;-77
2022/12/11 08:51:43;;;;;;;30.88;18.70;;;;;;;15.95;75.48;99301.36;1787389;80;21181;-76
2022/12/11 08:54:48;;;;;;;34.98;18.12;;;;;;;16.28;74.46;99309.14;1787229;80;21188;-77
2022/12/11 08:57:55;;;;;;;37.53;18.10;;;;;;;16.19;74.25;99299.52;1787263;80;21243;-77
2022/12/11 09:01:01;;;;;;;33.13;18.55;;;;;;;16.02;74.89;99287.78;1787164;80;21192;-77
2022/12/11 09:04:07;;;;;;;34.70;17.80;;;;;;;16.02;74.63;99296.05;1786907;80;21916;-78
2022/12/11 09:07:14;;;;;;;28.12;15.70;;;;;;;15.93;75.15;99272.66;1787115;80;21188;-77
2022/12/11 09:10:19;;;;;;;34.40;17.73;;;;;;;15.87;75.27;99274.98;1786026;80;21223;-76
2022/12/11 09:13:26;;;;;;;33.00;16.65;;;;;;;15.71;75.87;99270.13;1785732;80;21737;-76
2022/12/11 09:16:32;;;;;;;38.58;17.00;;;;;;;15.78;75.04;99258.48;1787170;80;21196;-76
2022/12/11 09:19:40;;;;;;;35.88;16.55;;;;;;;15.83;74.88;99271.02;1786449;80;21232;-76
2022/12/11 09:22:46;;;;;;;33.13;18.40;;;;;;;15.96;74.14;99262.54;1787039;80;21739;-77
2022/12/11 09:25:48;;;;;;;46.92;21.40;;;;;;;16.35;72.72;99245.84;1787255;80;21192;-77
2022/12/11 09:28:54;;;;;;;45.63;22.20;;;;;;;16.16;73.10;99254.47;1787235;80;21794;-77
2022/12/11 09:32:00;;;;;;;48.87;22.95;;;;;;;16.18;72.62;99260.03;1785796;80;21529;-77
2022/12/11 09:35:06;;;;;;;39.73;20.97;;;;;;;16.38;72.32;99253.36;1786104;80;21199;-76
2022/12/11 09:38:13;;;;;;;30.92;17.10;;;;;;;16.01;72.84;99236.47;1787204;80;21180;-78
2022/12/11 09:41:47;;;;;;;39.18;18.45;;;;;;;16.08;72.82;99243.23;1785732;80;21713;-76
2022/12/11 09:45:01;;;;;;;31.77;16.27;;;;;;;15.81;73.60;99238.17;1777221;80;21180;-76
2022/12/11 09:48:00;;;;;;;40.12;18.80;;;;;;;15.76;73.33;99231.66;1786991;80;21471;-77
2022/12/11 09:51:06;;;;;;;35.40;16.73;;;;;;;15.96;72.95;99222.55;1780400;80;21791;-78
2022/12/11 09:54:13;;;;;;;33.98;19.62;;;;;;;15.96;71.98;99229.98;1784344;80;21165;-76
2022/12/11 09:57:34;;;;;;;33.20;18.32;;;;;;;15.99;72.09;99214.33;1784433;80;21403;-76
2022/12/11 10:00:54;;;;;;;28.38;15.83;;;;;;;16.29;71.01;99202.66;1783542;80;21243;-76
2022/12/11 10:04:14;;;;;;;36.30;17.67;;;;;;;15.92;71.61;99208.09;1784370;80;21185;-77
2022/12/11 10:07:34;;;;;;;34.13;16.80;;;;;;;16.15;71.31;99215.02;1784312;80;21153;-77
2022/12/11 10:11:13;;;;;;;28.02;15.50;;;;;;;16.17;70.75;99202.35;1783686;80;21311;-77
2022/12/11 10:15:03;;;;;;;32.42;15.63;;;;;;;16.03;70.95;99184.65;1784446;80;21188;-77
2022/12/11 10:18:13;;;;;;;29.32;16.07;;;;;;;16.43;69.89;99182.55;1784260;80;21189;-77
2022/12/11 10:21:20;;;;;;;26.05;15.30;;;;;;;16.46;69.61;99188.95;1783034;80;21212;-77
2022/12/11 10:24:40;;;;;;;32.83;16.20;;;;;;;16.15;70.47;99186.05;1784298;80;22510;-77
2022/12/11 10:27:49;;;;;;;34.83;15.68;;;;;;;16.47;69.52;99171.88;1783504;80;21763;-78
2022/12/11 10:31:00;;;;;;;34.88;18.10;;;;;;;16.20;70.16;99180.65;1783734;80;21773;-76
2022/12/11 10:34:19;;;;;;;42.27;17.23;;;;;;;16.28;69.94;99168.42;1784517;80;21730;-76
2022/12/11 10:37:24;;;;;;;34.05;17.07;;;;;;;16.00;70.52;99167.22;1783021;80;21223;-77
2022/12/11 10:40:32;;;;;;;35.48;17.87;;;;;;;16.04;70.52;99157.91;1783189;80;21184;-76
2022/12/11 10:43:46;;;;;;;28.80;15.90;;;;;;;15.92;71.06;99157.92;1784302;80;21713;-77
2022/12/11 10:46:52;;;;;;;32.03;14.75;;;;;;;15.91;70.73;99157.63;1782957;80;21200;-78
2022/12/11 10:50:06;;;;;;;33.13;16.05;;;;;;;15.95;71.01;99160.72;1784353;80;21223;-77
2022/12/11 10:53:12;;;;;;;27.25;14.90;;;;;;;16.26;69.57;99149.88;1784508;80;21762;-77
2022/12/11 10:56:16;;;;;;;34.38;15.98;;;;;;;16.21;69.52;99147.84;1784547;80;21902;-77
2022/12/11 10:59:39;;;;;;;34.58;15.98;;;;;;;15.92;70.44;99145.51;1784257;80;21283;-77
2022/12/11 11:03:01;;;;;;;30.45;15.68;;;;;;;15.90;70.37;99135.78;1784938;80;21687;-77
2022/12/11 11:06:22;;;;;;;30.55;14.87;;;;;;;15.89;70.58;99136.33;1783738;80;21248;-77
2022/12/11 11:09:40;;;;;;;28.87;14.55;;;;;;;15.86;70.54;99140.95;1785016;80;21179;-77
2022/12/11 11:12:52;;;;;;;36.83;16.77;;;;;;;16.04;69.81;99137.22;1784522;80;21160;-76
2022/12/11 11:16:13;;;;;;;27.95;14.03;;;;;;;15.95;69.41;99130.38;1783048;80;21211;-77
2022/12/11 11:19:32;;;;;;;36.55;14.95;;;;;;;15.81;70.00;99132.56;1784587;80;21176;-76
2022/12/11 11:22:26;;;;;;;36.80;15.32;;;;;;;16.03;69.12;99129.48;1783659;80;21219;-76
2022/12/11 11:25:22;;;;;;;39.55;15.15;;;;;;;15.89;69.17;99131.35;1784571;80;21191;-77
2022/12/11 11:28:20;;;;;;;29.32;13.50;;;;;;;15.82;69.78;99137.83;1784611;80;21200;-76
2022/12/11 11:31:25;;;;;;;25.57;13.68;;;;;;;15.83;69.68;99133.16;1784176;80;21211;-76
2022/12/11 11:34:30;;;;;;;39.03;14.70;;;;;;;16.19;68.87;99140.89;1784724;80;21232;-76
2022/12/11 11:37:39;;;;;;;29.30;13.80;;;;;;;15.98;68.89;99125.23;1783783;80;21239;-77
2022/12/11 11:41:01;;;;;;;36.08;16.17;;;;;;;16.01;68.89;99144.07;1784674;80;21743;-76
2022/12/11 11:44:11;;;;;;;35.52;15.00;;;;;;;15.78;68.77;99133.03;1784519;80;21789;-76
2022/12/11 11:47:15;;;;;;;27.80;13.03;;;;;;;15.94;68.56;99136.98;1784600;80;21949;-76
2022/12/11 11:50:28;;;;;;;28.95;13.03;;;;;;;16.00;68.43;99137.42;1782939;80;21188;-76
2022/12/11 11:53:41;;;;;;;31.80;13.10;;;;;;;15.89;68.69;99134.95;1783328;80;21271;-76
2022/12/11 11:56:47;;;;;;;29.67;12.93;;;;;;;16.19;67.87;99145.03;1784382;80;21188;-77
2022/12/11 12:00:06;;;;;;;27.60;13.38;;;;;;;15.76;68.64;99136.55;1784182;80;21196;-77
2022/12/11 12:03:09;;;;;;;30.17;13.72;;;;;;;15.78;68.36;99142.69;1784078;80;21203;-77
2022/12/11 12:06:51;;;;;;;24.77;12.73;;;;;;;15.90;67.98;99133.86;1784156;80;21247;-76
2022/12/11 12:10:25;;;;;;;27.15;13.50;;;;;;;15.97;67.52;99128.24;1755532;81;21221;-77
2022/12/11 12:14:11;;;;;;;29.77;13.32;;;;;;;16.01;67.33;99126.14;1724839;83;21343;-77
2022/12/11 12:17:34;;;;;;;30.37;13.72;;;;;;;15.73;68.03;99134.29;1727729;80;21409;-76
2022/12/11 12:21:02;;;;;;;28.42;13.78;;;;;;;15.43;69.48;99125.53;1784594;80;21869;-76
2022/12/11 12:24:32;;;;;;;27.37;13.10;;;;;;;15.52;69.47;99128.22;1783203;80;21287;-77
2022/12/11 12:27:59;;;;;;;23.62;12.18;;;;;;;15.37;69.46;99122.33;1784784;80;21184;-76
2022/12/11 12:31:19;;;;;;;23.67;13.00;;;;;;;15.55;68.93;99122.24;1784698;80;21188;-76
2022/12/11 12:34:42;;;;;;;24.12;12.40;;;;;;;15.57;68.55;99120.62;1782649;80;21227;-76
2022/12/11 12:41:51;;;;;;;27.93;12.55;;;;;;;15.56;68.29;99118.41;1623128;88;21267;-78
2022/12/11 12:45:19;;;;;;;25.77;12.75;;;;;;;15.16;69.31;99110.50;1675173;85;21791;-77
2022/12/11 12:48:26;;;;;;;30.17;13.48;;;;;;;15.15;69.76;99103.28;1647025;85;21925;-77
2022/12/11 12:51:25;;;;;;;30.32;12.18;;;;;;;15.22;69.65;99102.66;1674880;85;21221;-78
2022/12/11 12:54:22;;;;;;;26.27;12.35;;;;;;;15.26;69.29;99100.58;1674472;85;21260;-78
2022/12/11 12:57:28;;;;;;;27.65;12.80;;;;;;;15.14;69.57;99089.22;1675122;85;21324;-78
2022/12/11 13:00:48;;;;;;;30.75;13.75;;;;;;;15.08;69.69;99091.00;1657370;85;21193;-77
2022/12/11 13:04:12;;;;;;;27.10;12.03;;;;;;;15.08;69.64;99089.08;1675480;85;21752;-78
2022/12/11 13:07:31;;;;;;;33.25;13.65;;;;;;;15.25;68.92;99080.16;1691060;85;21202;-77
2022/12/11 13:10:43;;;;;;;30.10;12.75;;;;;;;14.65;70.77;99067.81;1690782;85;21791;-76
2022/12/11 13:13:54;;;;;;;23.47;12.35;;;;;;;14.51;71.46;99058.36;1690688;85;21225;-75
2022/12/11 13:17:02;;;;;;;34.58;14.60;;;;;;;14.68;70.95;99065.44;1691989;85;21244;-77
2022/12/11 13:20:23;;;;;;;26.80;12.73;;;;;;;14.57;71.06;99060.70;1691824;85;21355;-77
2022/12/11 13:23:40;;;;;;;36.50;13.53;;;;;;;14.32;72.17;99061.64;1690923;85;21217;-76
2022/12/11 13:26:46;;;;;;;26.80;13.35;;;;;;;14.39;72.00;99058.80;1692251;85;21328;-76
2022/12/11 13:29:53;;;;;;;25.10;13.15;;;;;;;14.51;71.55;99054.77;1690686;85;21217;-76
2022/12/11 13:33:15;;;;;;;30.00;13.08;;;;;;;14.41;71.81;99055.30;1691269;85;21262;-76
2022/12/11 13:36:26;;;;;;;30.10;13.38;;;;;;;14.42;71.69;99059.72;1692007;85;21189;-76
2022/12/11 13:39:44;;;;;;;28.62;13.50;;;;;;;14.44;71.68;99055.34;1682386;85;21365;-77
2022/12/11 13:43:08;;;;;;;30.95;13.03;;;;;;;14.64;71.02;99057.34;1672402;85;21215;-77
2022/12/11 13:46:16;;;;;;;35.43;13.00;;;;;;;14.68;70.54;99059.94;1665878;86;21267;-75
2022/12/11 13:49:36;;;;;;;27.48;13.80;;;;;;;14.77;70.41;99063.17;1642477;87;21213;-77
2022/12/11 13:52:42;;;;;;;25.52;12.88;;;;;;;14.73;70.17;99056.48;1644679;87;21277;-76
2022/12/11 13:55:48;;;;;;;28.98;12.65;;;;;;;14.78;70.40;99064.88;1642729;87;21254;-76
2022/12/11 13:58:55;;;;;;;23.95;12.15;;;;;;;14.96;69.52;99059.31;1642704;87;21226;-76
2022/12/11 14:02:05;;;;;;;32.42;14.55;;;;;;;14.99;69.38;99064.88;1642133;87;21296;-76
2022/12/11 14:05:14;;;;;;;27.15;12.58;;;;;;;14.78;69.75;99052.50;1643700;86;21286;-77
2022/12/11 14:08:23;;;;;;;25.73;12.03;;;;;;;14.99;69.40;99057.45;1667165;86;21183;-77
2022/12/11 14:11:33;;;;;;;27.20;13.08;;;;;;;14.66;70.24;99044.72;1653263;86;21205;-77
2022/12/11 14:14:50;;;;;;;30.85;14.20;;;;;;;14.96;69.39;99055.70;1669133;86;21209;-78
2022/12/11 14:17:56;;;;;;;27.25;13.22;;;;;;;14.95;69.21;99052.65;1671626;86;21236;-78
2022/12/11 14:21:06;;;;;;;25.50;13.72;;;;;;;15.04;68.66;99045.19;1663578;86;21181;-78
2022/12/11 14:24:15;;;;;;;27.85;13.72;;;;;;;14.81;69.21;99035.49;1671100;86;21209;-78
2022/12/11 14:27:23;;;;;;;42.25;15.38;;;;;;;15.03;68.68;99045.44;1671942;86;21522;-78
2022/12/11 14:30:36;;;;;;;34.60;14.13;;;;;;;14.98;68.67;99042.02;1670613;86;21213;-77
2022/12/11 14:33:47;;;;;;;32.58;13.20;;;;;;;14.91;69.10;99043.17;1671304;86;21558;-78
2022/12/11 14:36:53;;;;;;;29.80;13.53;;;;;;;14.82;69.64;99034.44;1672142;86;21775;-77
2022/12/11 14:40:19;;;;;;;27.10;13.15;;;;;;;14.83;69.83;99038.33;1672052;86;21244;-77
2022/12/11 14:43:32;;;;;;;28.05;13.08;;;;;;;14.76;70.21;99025.72;1680997;85;21194;-77
2022/12/11 14:46:53;;;;;;;41.13;15.80;;;;;;;14.94;69.72;99020.69;1679357;85;21162;-75
2022/12/11 14:50:36;;;;;;;34.63;13.30;;;;;;;15.08;69.39;99023.53;1681204;85;21249;-77